Ypenburg, Netherlands
Current Conditions -  °F | °C
As of 3:25 PM on Tuesday 27 Jan 2015 (Local Time) from EHRD Reporting Station
Broken Clouds Broken Clouds  
Wind Chill:   Ceiling: 2200
Heat Index:   Visibility: 6mi
Dew Point:   Wind: 10mph
Humidity: 81%   Direction: 280°W
Pressure: 30.21"   Gusts: NA
Location:  52.04°N, 4.37°E
Report Text: EHRD 271425Z AUTO 28009KT 250V310 9999 SCT017 BKN022 BKN02607/04 Q1023 NOSIG
Loading
Personal Weather Stations






























Interactive Weather Map New forecast layout! Learn more

10-Day Weather Forecast

Advertisements
Track Severe Weather on mobile